Time;durP1;ratioP1;P1;durP2;ratioP2;P2;SDS_P1;SDS_P2;PMS_P1;PMS_P2;Temp;Humidity;BMP_temperature;BMP_pressure;BME280_temperature;BME280_humidity;BME280_pressure;Samples;Min_cycle;Max_cycle;Signal;HPM_P1;HPM_P2
2022/05/01 01:45:29;;;;;;;38.67;22.20;;;;;;;;;;6191844;23;20216;-89
2022/05/01 01:48:34;;;;;;;36.50;21.80;;;;;;;;;;6180066;23;20191;-89
2022/05/01 01:51:39;;;;;;;39.92;23.23;;;;;;;;;;6179716;23;20242;-89
2022/05/01 01:54:44;;;;;;;45.95;24.38;;;;;;;;;;6180350;23;20295;-89
2022/05/01 01:57:49;;;;;;;39.72;23.48;;;;;;;;;;6179919;23;20213;-89
2022/05/01 02:00:57;;;;;;;43.47;24.77;;;;;;;;;;6179925;23;20171;-89
2022/05/01 02:04:01;;;;;;;43.78;24.35;;;;;;;;;;6181170;23;20172;-91
2022/05/01 02:07:06;;;;;;;42.22;24.85;;;;;;;;;;6180147;23;20609;-88
2022/05/01 02:10:11;;;;;;;37.70;22.77;;;;;;;;;;6181817;23;20208;-88
2022/05/01 02:13:17;;;;;;;40.38;23.58;;;;;;;;;;6180265;23;20164;-88
2022/05/01 02:16:23;;;;;;;40.75;23.38;;;;;;;;;;6179764;23;20231;-89
2022/05/01 02:19:28;;;;;;;41.13;22.73;;;;;;;;;;6180229;23;20170;-90
2022/05/01 02:22:33;;;;;;;36.15;22.63;;;;;;;;;;6179829;23;20555;-89
2022/05/01 02:25:40;;;;;;;38.97;23.23;;;;;;;;;;6178523;23;20219;-90
2022/05/01 02:28:46;;;;;;;46.33;24.20;;;;;;;;;;6178609;23;20215;-89
2022/05/01 02:31:53;;;;;;;43.08;24.55;;;;;;;;;;6177285;23;20168;-89
2022/05/01 02:34:58;;;;;;;43.75;23.58;;;;;;;;;;6182395;23;20147;-90
2022/05/01 02:38:06;;;;;;;41.08;23.15;;;;;;;;;;6181054;23;20176;-89
2022/05/01 02:41:18;;;;;;;40.72;23.45;;;;;;;;;;6179146;23;20211;-88
2022/05/01 02:44:24;;;;;;;39.78;23.27;;;;;;;;;;6181691;23;20194;-89
2022/05/01 02:47:30;;;;;;;43.45;23.90;;;;;;;;;;6196981;23;20235;-90
2022/05/01 02:50:36;;;;;;;41.35;24.23;;;;;;;;;;6197452;23;20243;-89
2022/05/01 02:53:41;;;;;;;41.25;24.50;;;;;;;;;;6196682;23;20167;-88
2022/05/01 02:56:47;;;;;;;40.03;22.90;;;;;;;;;;6199195;23;20236;-90
2022/05/01 02:59:52;;;;;;;35.55;21.67;;;;;;;;;;6196481;23;20516;-88
2022/05/01 03:02:58;;;;;;;37.13;20.48;;;;;;;;;;6196505;23;20215;-89
2022/05/01 03:06:03;;;;;;;33.72;20.30;;;;;;;;;;6195905;23;20174;-89
2022/05/01 03:09:09;;;;;;;34.13;20.75;;;;;;;;;;6197176;23;20172;-90
2022/05/01 03:12:14;;;;;;;32.20;18.90;;;;;;;;;;6199200;23;20200;-90
2022/05/01 03:15:20;;;;;;;30.23;18.08;;;;;;;;;;6197114;23;20172;-89
2022/05/01 03:25:13;;;;;;;30.52;18.63;;;;;;;;;;6198176;23;20187;-89
2022/05/01 03:28:18;;;;;;;30.65;18.20;;;;;;;;;;6198239;23;20195;-89
2022/05/01 03:31:27;;;;;;;32.00;18.50;;;;;;;;;;6200344;23;20213;-88
2022/05/01 03:34:33;;;;;;;29.45;18.73;;;;;;;;;;6199293;23;20180;-90
2022/05/01 03:37:39;;;;;;;30.35;18.25;;;;;;;;;;6197181;23;20167;-88
2022/05/01 03:40:47;;;;;;;32.60;19.20;;;;;;;;;;6197460;23;20152;-90
2022/05/01 03:43:52;;;;;;;33.85;18.90;;;;;;;;;;6197893;23;20175;-89
2022/05/01 03:46:57;;;;;;;32.95;18.73;;;;;;;;;;6180661;23;20179;-89
2022/05/01 03:50:04;;;;;;;28.20;17.35;;;;;;;;;;6180014;23;20168;-88
2022/05/01 03:53:09;;;;;;;28.85;17.40;;;;;;;;;;6181327;23;20176;-89
2022/05/01 03:56:14;;;;;;;27.27;17.45;;;;;;;;;;6180189;23;20494;-90
2022/05/01 03:59:19;;;;;;;29.40;18.42;;;;;;;;;;6182056;23;20172;-90
2022/05/01 04:02:46;;;;;;;30.30;17.98;;;;;;;;;;6180112;23;20651;-87
2022/05/01 04:05:52;;;;;;;32.85;18.08;;;;;;;;;;6181474;23;20243;-88
2022/05/01 04:09:00;;;;;;;29.98;18.00;;;;;;;;;;6182550;23;20243;-90
2022/05/01 04:12:05;;;;;;;31.67;18.73;;;;;;;;;;6180148;23;20246;-89
2022/05/01 04:15:13;;;;;;;28.38;17.65;;;;;;;;;;6198997;23;20168;-88
2022/05/01 04:18:21;;;;;;;31.40;16.67;;;;;;;;;;6180636;23;20176;-89
2022/05/01 04:21:27;;;;;;;34.90;18.48;;;;;;;;;;6180582;23;20198;-91
2022/05/01 04:24:32;;;;;;;31.17;17.60;;;;;;;;;;6180943;23;20224;-90
2022/05/01 04:27:36;;;;;;;31.55;18.63;;;;;;;;;;6180011;23;20191;-88
2022/05/01 04:30:42;;;;;;;30.25;17.98;;;;;;;;;;6179279;23;20152;-89
2022/05/01 04:33:47;;;;;;;30.48;17.55;;;;;;;;;;6179116;23;20151;-90
2022/05/01 04:36:54;;;;;;;28.33;16.95;;;;;;;;;;6180724;23;20612;-90
2022/05/01 04:43:53;;;;;;;28.75;16.95;;;;;;;;;;6179609;23;20187;-90
2022/05/01 04:46:58;;;;;;;30.75;17.13;;;;;;;;;;6179488;23;20176;-90
2022/05/01 04:50:03;;;;;;;28.80;16.90;;;;;;;;;;6180231;23;20627;-89
2022/05/01 04:53:10;;;;;;;29.25;18.23;;;;;;;;;;6179652;23;20302;-91
2022/05/01 04:59:38;;;;;;;27.67;18.02;;;;;;;;;;6179569;23;20171;-89
2022/05/01 05:02:44;;;;;;;27.85;17.20;;;;;;;;;;6179956;23;20168;-90
2022/05/01 05:05:50;;;;;;;29.70;18.00;;;;;;;;;;6180763;23;20168;-90
2022/05/01 05:12:20;;;;;;;32.03;18.60;;;;;;;;;;6177296;23;20223;-89
2022/05/01 05:15:25;;;;;;;33.67;19.70;;;;;;;;;;6180272;23;20168;-90
2022/05/01 05:18:30;;;;;;;32.30;19.45;;;;;;;;;;6176590;23;20168;-90
2022/05/01 05:21:35;;;;;;;28.67;18.83;;;;;;;;;;6178197;23;20191;-89
2022/05/01 05:24:41;;;;;;;28.08;17.85;;;;;;;;;;6178429;23;20171;-89
2022/05/01 05:27:49;;;;;;;33.33;18.27;;;;;;;;;;6177920;23;20624;-91
2022/05/01 05:30:54;;;;;;;27.17;18.20;;;;;;;;;;6178539;23;20209;-91
2022/05/01 05:33:59;;;;;;;29.98;19.15;;;;;;;;;;6178890;23;20177;-90
2022/05/01 05:37:04;;;;;;;30.08;18.60;;;;;;;;;;6179453;23;20175;-90
2022/05/01 05:40:13;;;;;;;29.65;18.50;;;;;;;;;;6178204;23;20280;-90
2022/05/01 05:43:18;;;;;;;28.25;18.23;;;;;;;;;;6179392;23;20219;-90
2022/05/01 05:46:24;;;;;;;31.55;19.33;;;;;;;;;;6178451;23;20489;-87
2022/05/01 05:49:31;;;;;;;31.08;18.98;;;;;;;;;;6178298;23;20171;-89
2022/05/01 05:52:36;;;;;;;29.38;17.92;;;;;;;;;;6179918;23;20548;-90
2022/05/01 05:55:45;;;;;;;30.35;19.38;;;;;;;;;;6179270;23;20595;-90
2022/05/01 05:58:50;;;;;;;27.55;18.30;;;;;;;;;;6181082;23;20188;-91
2022/05/01 06:01:55;;;;;;;32.53;17.88;;;;;;;;;;6178715;23;20239;-88
2022/05/01 06:05:00;;;;;;;30.77;19.45;;;;;;;;;;6179999;23;20167;-90
2022/05/01 06:08:05;;;;;;;30.20;20.13;;;;;;;;;;6178772;23;20483;-90
2022/05/01 06:11:12;;;;;;;35.85;19.17;;;;;;;;;;6179049;23;20176;-90
2022/05/01 06:14:17;;;;;;;46.33;22.83;;;;;;;;;;6178982;23;20175;-90
2022/05/01 06:17:25;;;;;;;38.13;21.88;;;;;;;;;;6177730;23;20172;-90
2022/05/01 06:20:30;;;;;;;28.23;18.30;;;;;;;;;;6176447;23;20163;-88
2022/05/01 06:23:36;;;;;;;28.90;19.23;;;;;;;;;;6174623;23;20275;-89
2022/05/01 06:26:42;;;;;;;30.85;18.48;;;;;;;;;;6174831;23;20209;-89
2022/05/01 06:29:47;;;;;;;29.13;17.85;;;;;;;;;;6176212;23;20611;-89
2022/05/01 06:32:51;;;;;;;31.98;19.05;;;;;;;;;;6174705;23;20501;-91
2022/05/01 06:35:57;;;;;;;26.65;18.08;;;;;;;;;;6175522;23;20229;-90
2022/05/01 06:39:02;;;;;;;26.85;16.60;;;;;;;;;;6177711;23;20172;-90
2022/05/01 06:42:09;;;;;;;27.20;17.23;;;;;;;;;;6177646;23;20188;-88
2022/05/01 06:45:14;;;;;;;27.83;17.23;;;;;;;;;;6189927;23;20265;-91
2022/05/01 06:48:20;;;;;;;24.55;16.52;;;;;;;;;;6195123;23;20259;-89
2022/05/01 06:51:25;;;;;;;25.77;16.10;;;;;;;;;;6194011;23;20163;-90
2022/05/01 06:54:30;;;;;;;23.73;14.68;;;;;;;;;;6194220;23;20499;-90
2022/05/01 06:57:37;;;;;;;22.20;15.18;;;;;;;;;;6194822;23;20167;-89
2022/05/01 07:00:43;;;;;;;25.75;16.13;;;;;;;;;;6197877;23;20215;-90
2022/05/01 07:03:48;;;;;;;23.60;15.27;;;;;;;;;;6196567;23;20629;-90
2022/05/01 07:06:53;;;;;;;22.67;15.13;;;;;;;;;;6194893;23;20255;-89
2022/05/01 07:09:58;;;;;;;23.75;14.40;;;;;;;;;;6195852;23;20202;-91
2022/05/01 07:13:05;;;;;;;22.98;15.07;;;;;;;;;;6196457;23;20211;-89
2022/05/01 07:16:10;;;;;;;21.65;14.10;;;;;;;;;;6196524;23;20168;-91
2022/05/01 07:19:16;;;;;;;20.38;13.85;;;;;;;;;;6197313;23;20171;-91
2022/05/01 07:22:21;;;;;;;21.25;14.02;;;;;;;;;;6194990;23;20168;-91
2022/05/01 07:25:27;;;;;;;23.88;14.45;;;;;;;;;;6197514;23;20171;-89
2022/05/01 07:28:34;;;;;;;21.77;14.48;;;;;;;;;;6198849;23;20642;-90
2022/05/01 07:31:42;;;;;;;23.23;14.13;;;;;;;;;;6196998;23;20176;-90
2022/05/01 07:34:47;;;;;;;21.58;13.88;;;;;;;;;;6199199;23;20171;-89
2022/05/01 07:37:53;;;;;;;21.45;13.70;;;;;;;;;;6197974;23;20187;-90
2022/05/01 07:40:58;;;;;;;21.33;13.60;;;;;;;;;;6199630;23;20215;-89
2022/05/01 07:44:05;;;;;;;24.15;14.45;;;;;;;;;;6200111;23;20187;-89
2022/05/01 07:47:10;;;;;;;24.70;14.20;;;;;;;;;;6182732;23;20183;-88
2022/05/01 07:50:17;;;;;;;20.63;13.45;;;;;;;;;;6179155;23;20152;-89
2022/05/01 07:53:22;;;;;;;21.98;13.73;;;;;;;;;;6180639;23;20256;-89
2022/05/01 07:56:27;;;;;;;21.05;13.88;;;;;;;;;;6182575;23;20179;-89
2022/05/01 07:59:33;;;;;;;20.30;13.52;;;;;;;;;;6180830;23;20167;-90
2022/05/01 08:05:58;;;;;;;22.05;13.93;;;;;;;;;;6181787;23;20191;-90
2022/05/01 08:09:03;;;;;;;20.70;13.38;;;;;;;;;;6180893;23;20195;-88
2022/05/01 08:12:08;;;;;;;19.05;13.70;;;;;;;;;;6182364;23;20167;-88
2022/05/01 08:15:17;;;;;;;22.15;13.05;;;;;;;;;;6181217;23;20267;-90
2022/05/01 08:21:44;;;;;;;18.77;12.90;;;;;;;;;;6180967;23;20163;-90
2022/05/01 08:24:49;;;;;;;17.33;12.48;;;;;;;;;;6182082;23;20172;-89
2022/05/01 08:27:55;;;;;;;21.45;14.20;;;;;;;;;;6181942;23;20167;-90
2022/05/01 08:31:08;;;;;;;25.13;16.40;;;;;;;;;;6182369;23;20159;-88
2022/05/01 08:34:14;;;;;;;19.88;12.85;;;;;;;;;;6182849;23;20167;-89
2022/05/01 08:37:20;;;;;;;19.00;13.25;;;;;;;;;;6179501;23;20176;-89
2022/05/01 08:40:26;;;;;;;18.50;12.43;;;;;;;;;;6184114;23;20156;-88
2022/05/01 08:43:32;;;;;;;17.80;11.95;;;;;;;;;;6186163;23;20188;-89
2022/05/01 08:46:47;;;;;;;19.00;11.38;;;;;;;;;;6183973;23;20184;-90
2022/05/01 08:49:55;;;;;;;19.40;11.77;;;;;;;;;;6181347;23;20199;-89
2022/05/01 08:53:03;;;;;;;20.52;11.85;;;;;;;;;;6179018;23;20172;-89
2022/05/01 08:56:11;;;;;;;18.83;12.40;;;;;;;;;;6163462;23;20164;-90
2022/05/01 08:59:16;;;;;;;16.90;11.60;;;;;;;;;;6197628;23;20280;-90
2022/05/01 09:02:22;;;;;;;16.60;11.10;;;;;;;;;;6183004;23;20238;-89
2022/05/01 09:05:28;;;;;;;16.45;11.07;;;;;;;;;;6179284;23;20601;-90
2022/05/01 09:08:33;;;;;;;16.90;11.23;;;;;;;;;;6180399;23;20307;-89
2022/05/01 09:15:02;;;;;;;18.10;12.07;;;;;;;;;;6180319;23;20207;-88
2022/05/01 09:18:11;;;;;;;19.23;12.30;;;;;;;;;;6179152;23;20187;-89
2022/05/01 09:21:17;;;;;;;17.02;11.85;;;;;;;;;;6181733;23;20175;-89
2022/05/01 09:24:30;;;;;;;17.70;11.48;;;;;;;;;;6180750;23;20235;-89
2022/05/01 09:27:36;;;;;;;17.10;11.32;;;;;;;;;;6180690;23;20194;-88
2022/05/01 09:30:43;;;;;;;15.93;11.20;;;;;;;;;;6181436;23;20250;-90
2022/05/01 09:33:50;;;;;;;17.35;10.73;;;;;;;;;;6183920;23;20171;-90
2022/05/01 09:36:55;;;;;;;15.52;10.57;;;;;;;;;;6178792;23;20280;-87
2022/05/01 09:40:00;;;;;;;16.25;11.02;;;;;;;;;;6182469;23;20176;-90
2022/05/01 09:43:06;;;;;;;15.50;10.35;;;;;;;;;;6180505;23;20622;-90
2022/05/01 09:46:12;;;;;;;15.90;10.13;;;;;;;;;;6182863;23;20152;-89
2022/05/01 09:49:19;;;;;;;12.77;9.57;;;;;;;;;;6185000;23;20207;-90
2022/05/01 09:55:43;;;;;;;14.27;10.20;;;;;;;;;;6185235;23;20168;-90
2022/05/01 09:58:58;;;;;;;14.77;9.50;;;;;;;;;;6181518;23;20229;-90
2022/05/01 10:02:03;;;;;;;12.23;8.93;;;;;;;;;;6182604;23;20204;-90
2022/05/01 10:05:10;;;;;;;13.25;9.32;;;;;;;;;;6181277;23;20168;-90
2022/05/01 10:08:15;;;;;;;13.18;9.30;;;;;;;;;;6184733;23;20179;-91
2022/05/01 10:11:20;;;;;;;16.25;9.77;;;;;;;;;;6181751;23;20168;-89
2022/05/01 10:14:26;;;;;;;16.10;9.45;;;;;;;;;;6184999;23;20163;-90
2022/05/01 10:17:38;;;;;;;15.20;10.75;;;;;;;;;;6183297;23;20148;-89
2022/05/01 10:24:08;;;;;;;13.85;9.80;;;;;;;;;;6187602;23;20234;-90
2022/05/01 10:27:18;;;;;;;12.80;9.27;;;;;;;;;;6182950;23;20167;-90
2022/05/01 10:33:59;;;;;;;13.25;9.48;;;;;;;;;;6181323;23;20596;-92
2022/05/01 10:40:48;;;;;;;14.27;9.85;;;;;;;;;;6178817;23;20172;-91
2022/05/01 10:43:58;;;;;;;18.13;10.57;;;;;;;;;;6183613;23;20191;-90
2022/05/01 10:47:13;;;;;;;17.42;10.35;;;;;;;;;;6183226;23;20172;-91
2022/05/01 10:50:22;;;;;;;15.65;10.52;;;;;;;;;;6182778;23;20191;-90
2022/05/01 10:53:27;;;;;;;15.60;10.00;;;;;;;;;;6200866;23;20176;-87
2022/05/01 10:56:35;;;;;;;15.68;10.02;;;;;;;;;;6183840;23;20191;-90
2022/05/01 10:59:43;;;;;;;15.23;9.85;;;;;;;;;;6182623;23;20181;-89
2022/05/01 11:02:48;;;;;;;14.57;10.07;;;;;;;;;;6182966;23;20166;-91
2022/05/01 11:05:56;;;;;;;15.25;9.55;;;;;;;;;;6184165;23;20236;-90
2022/05/01 11:09:02;;;;;;;16.70;9.82;;;;;;;;;;6185890;23;20219;-90
2022/05/01 11:12:10;;;;;;;13.70;9.27;;;;;;;;;;6182600;23;20179;-88
2022/05/01 11:15:27;;;;;;;14.95;9.48;;;;;;;;;;6184457;23;20160;-89
2022/05/01 11:18:35;;;;;;;12.20;8.80;;;;;;;;;;6187070;23;20167;-89
2022/05/01 11:21:41;;;;;;;15.85;9.15;;;;;;;;;;6185301;23;20224;-90
2022/05/01 11:24:47;;;;;;;20.02;12.60;;;;;;;;;;6184504;23;20228;-89
2022/05/01 11:27:55;;;;;;;14.32;9.65;;;;;;;;;;6183515;23;20184;-89
2022/05/01 11:31:00;;;;;;;14.07;10.18;;;;;;;;;;6184443;23;20264;-89
2022/05/01 11:34:23;;;;;;;19.33;12.20;;;;;;;;;;6184735;23;20156;-89
2022/05/01 11:37:29;;;;;;;15.13;11.00;;;;;;;;;;6183096;23;20176;-90
2022/05/01 11:40:34;;;;;;;15.00;11.27;;;;;;;;;;6182417;23;20164;-90
2022/05/01 11:43:41;;;;;;;17.58;11.48;;;;;;;;;;6181642;23;20184;-89
2022/05/01 11:46:48;;;;;;;14.98;11.18;;;;;;;;;;6181220;23;20191;-89
2022/05/01 11:49:52;;;;;;;16.38;11.13;;;;;;;;;;6183552;23;20248;-89
2022/05/01 11:52:58;;;;;;;16.25;11.15;;;;;;;;;;6180286;23;20246;-90
2022/05/01 12:02:57;;;;;;;15.20;10.07;;;;;;;;;;6180260;23;20235;-90
2022/05/01 12:06:02;;;;;;;15.43;10.65;;;;;;;;;;6179614;23;20180;-89
2022/05/01 12:09:07;;;;;;;14.00;10.82;;;;;;;;;;6180051;23;20210;-90
2022/05/01 12:12:13;;;;;;;15.13;10.40;;;;;;;;;;6179754;23;20175;-90
2022/05/01 12:15:21;;;;;;;15.40;10.70;;;;;;;;;;6179993;23;20587;-89
2022/05/01 12:18:50;;;;;;;14.77;10.27;;;;;;;;;;6179634;23;20156;-90
2022/05/01 12:22:01;;;;;;;11.98;9.98;;;;;;;;;;6180747;23;20175;-86
2022/05/01 12:25:12;;;;;;;12.32;9.45;;;;;;;;;;6181495;23;20265;-90
2022/05/01 12:28:18;;;;;;;13.65;10.25;;;;;;;;;;6180622;23;20175;-90
2022/05/01 12:31:25;;;;;;;14.60;9.85;;;;;;;;;;6182647;23;20171;-90
2022/05/01 12:34:31;;;;;;;12.40;9.85;;;;;;;;;;6180508;23;20163;-90
2022/05/01 12:37:38;;;;;;;11.40;9.48;;;;;;;;;;6183045;23;20156;-90
2022/05/01 12:44:05;;;;;;;13.73;10.60;;;;;;;;;;6179573;23;20191;-90
2022/05/01 12:47:12;;;;;;;14.75;10.90;;;;;;;;;;6181836;23;20164;-90
2022/05/01 12:50:27;;;;;;;15.43;10.63;;;;;;;;;;6186426;23;20195;-90
2022/05/01 12:53:35;;;;;;;15.90;10.90;;;;;;;;;;6180361;23;20188;-90
2022/05/01 12:56:42;;;;;;;14.13;10.63;;;;;;;;;;6181401;23;20172;-90
2022/05/01 12:59:56;;;;;;;13.23;9.48;;;;;;;;;;6181495;23;20167;-90
2022/05/01 13:03:24;;;;;;;13.85;10.65;;;;;;;;;;6181624;23;20168;-90
2022/05/01 13:06:38;;;;;;;12.98;10.50;;;;;;;;;;6181478;23;20176;-90
2022/05/01 13:09:53;;;;;;;12.32;9.50;;;;;;;;;;6180762;23;20257;-91
2022/05/01 13:12:59;;;;;;;11.25;8.60;;;;;;;;;;6182099;23;20219;-91
2022/05/01 13:16:06;;;;;;;12.68;8.95;;;;;;;;;;6181468;23;20176;-90
2022/05/01 13:19:13;;;;;;;12.57;9.52;;;;;;;;;;6181871;23;20184;-89
2022/05/01 13:22:18;;;;;;;16.08;10.30;;;;;;;;;;6183935;23;20170;-90
2022/05/01 13:25:24;;;;;;;13.85;9.02;;;;;;;;;;6181437;23;20175;-90
2022/05/01 13:28:29;;;;;;;11.25;7.93;;;;;;;;;;6181940;23;20215;-90
2022/05/01 13:31:34;;;;;;;11.95;7.95;;;;;;;;;;6179288;23;20167;-91
2022/05/01 13:34:42;;;;;;;13.05;7.63;;;;;;;;;;6180366;23;20179;-91
2022/05/01 13:37:50;;;;;;;9.70;7.32;;;;;;;;;;6179791;23;20215;-89
2022/05/01 13:47:41;;;;;;;7.82;6.38;;;;;;;;;;6180234;23;20172;-90
2022/05/01 13:50:48;;;;;;;10.40;5.60;;;;;;;;;;6162930;23;20199;-90
2022/05/01 13:53:54;;;;;;;8.75;5.35;;;;;;;;;;6180515;23;20176;-91
2022/05/01 13:56:59;;;;;;;7.35;5.28;;;;;;;;;;6181179;23;20211;-91
2022/05/01 14:00:06;;;;;;;8.38;6.28;;;;;;;;;;6181448;23;20170;-91
2022/05/01 14:03:18;;;;;;;11.32;6.20;;;;;;;;;;6198438;23;20172;-90
2022/05/01 14:06:25;;;;;;;10.35;7.10;;;;;;;;;;6180644;23;20159;-91
2022/05/01 14:09:31;;;;;;;10.13;6.70;;;;;;;;;;6182778;23;20625;-90
2022/05/01 14:12:37;;;;;;;9.27;6.40;;;;;;;;;;6181779;23;20171;-89
2022/05/01 14:15:42;;;;;;;10.73;7.07;;;;;;;;;;6183495;23;20172;-91
2022/05/01 14:18:48;;;;;;;8.02;6.47;;;;;;;;;;6180172;23;20175;-91
2022/05/01 14:21:55;;;;;;;15.77;8.25;;;;;;;;;;6180541;23;20240;-90
2022/05/01 14:25:01;;;;;;;9.68;7.80;;;;;;;;;;6180964;23;20239;-89
2022/05/01 14:28:06;;;;;;;10.95;7.88;;;;;;;;;;6182576;23;20171;-90
2022/05/01 14:31:14;;;;;;;12.55;7.55;;;;;;;;;;6181924;23;20199;-92
2022/05/01 14:34:23;;;;;;;10.40;7.57;;;;;;;;;;6180366;23;20168;-90
2022/05/01 14:37:39;;;;;;;10.80;7.90;;;;;;;;;;6163620;23;20156;-89
2022/05/01 14:40:46;;;;;;;10.57;7.38;;;;;;;;;;6181525;23;20173;-90
2022/05/01 14:43:55;;;;;;;9.73;7.03;;;;;;;;;;6177697;23;20191;-90
2022/05/01 14:47:01;;;;;;;10.10;7.32;;;;;;;;;;6181614;23;20175;-91
2022/05/01 14:50:09;;;;;;;9.50;6.50;;;;;;;;;;6180827;23;20179;-90
2022/05/01 14:53:16;;;;;;;9.40;6.88;;;;;;;;;;6181839;23;20208;-90
2022/05/01 14:56:23;;;;;;;11.75;7.03;;;;;;;;;;6180594;23;20172;-90
2022/05/01 15:06:21;;;;;;;10.43;6.53;;;;;;;;;;6180470;23;20195;-88
2022/05/01 15:09:30;;;;;;;10.82;6.30;;;;;;;;;;6182738;23;20205;-90
2022/05/01 15:12:35;;;;;;;11.38;6.20;;;;;;;;;;6182692;23;20156;-89
2022/05/01 15:15:54;;;;;;;10.10;6.65;;;;;;;;;;6179439;23;20175;-90
2022/05/01 15:19:07;;;;;;;11.57;7.25;;;;;;;;;;6182482;23;20164;-89
2022/05/01 15:22:22;;;;;;;11.70;6.38;;;;;;;;;;6180569;23;20168;-90
2022/05/01 15:25:30;;;;;;;7.80;5.93;;;;;;;;;;6179970;23;20175;-90
2022/05/01 15:28:38;;;;;;;8.85;5.95;;;;;;;;;;6182736;23;20176;-90
2022/05/01 15:31:44;;;;;;;9.23;6.13;;;;;;;;;;6183807;23;20266;-89
2022/05/01 15:34:51;;;;;;;10.95;6.25;;;;;;;;;;6182299;23;20176;-90
2022/05/01 15:37:59;;;;;;;12.35;7.25;;;;;;;;;;6181989;23;20191;-90
2022/05/01 15:41:17;;;;;;;11.52;6.05;;;;;;;;;;6182795;23;20184;-89
2022/05/01 15:44:24;;;;;;;11.00;5.75;;;;;;;;;;6184057;23;20208;-89
2022/05/01 15:47:32;;;;;;;8.40;6.05;;;;;;;;;;6201592;23;20179;-89
2022/05/01 15:54:03;;;;;;;9.70;6.38;;;;;;;;;;6204986;23;20164;-89
2022/05/01 15:57:14;;;;;;;8.60;6.18;;;;;;;;;;6203950;23;20172;-91
2022/05/01 16:00:22;;;;;;;9.73;6.05;;;;;;;;;;6203804;23;20503;-90
2022/05/01 16:03:27;;;;;;;9.05;6.10;;;;;;;;;;6205498;23;20200;-89
2022/05/01 16:06:34;;;;;;;9.82;6.35;;;;;;;;;;6204742;23;20195;-90
2022/05/01 16:09:44;;;;;;;8.90;5.95;;;;;;;;;;6204468;23;20241;-90
2022/05/01 16:12:56;;;;;;;11.18;4.80;;;;;;;;;;6202795;23;20236;-89
2022/05/01 16:16:04;;;;;;;4.68;2.83;;;;;;;;;;6202629;23;20192;-89
2022/05/01 16:19:15;;;;;;;4.90;3.00;;;;;;;;;;6202639;23;20239;-88
2022/05/01 16:22:24;;;;;;;5.93;2.97;;;;;;;;;;6204125;23;20246;-91
2022/05/01 16:32:22;;;;;;;8.38;3.58;;;;;;;;;;6203458;23;20172;-90
2022/05/01 16:35:33;;;;;;;8.60;3.20;;;;;;;;;;6220837;23;20168;-88
